createdAt,value
2023-01-08T00:00:05.788Z,100175.31
2023-01-08T00:02:38.917Z,100135.44
2023-01-08T00:05:06.193Z,100141.63
2023-01-08T00:07:32.792Z,100108.84
2023-01-08T00:09:59.343Z,100128.31
2023-01-08T00:12:26.006Z,100156.66
2023-01-08T00:14:52.542Z,100142.44
2023-01-08T00:17:19.015Z,100049.41
2023-01-08T00:19:46.586Z,100066.25
2023-01-08T00:22:13.189Z,100147.75
2023-01-08T00:24:39.785Z,100130.03
2023-01-08T00:27:06.275Z,100104.31
2023-01-08T00:29:32.909Z,100114.06
2023-01-08T00:31:59.539Z,100141.53
2023-01-08T00:34:26.123Z,100153.09
2023-01-08T00:36:52.644Z,100117.66
2023-01-08T00:39:19.157Z,100134.50
2023-01-08T00:41:45.813Z,100142.50
2023-01-08T00:44:12.383Z,100029.13
2023-01-08T00:46:39.216Z,100136.31
2023-01-08T00:49:05.704Z,100125.69
2023-01-08T00:51:32.366Z,100127.47
2023-01-08T00:53:58.963Z,100092.94
2023-01-08T00:56:25.414Z,100110.66
2023-01-08T00:58:52.035Z,100112.44
2023-01-08T01:01:18.639Z,100092.94
2023-01-08T01:03:46.260Z,100087.63
2023-01-08T01:06:14.045Z,100081.44
2023-01-08T01:08:41.268Z,100108.00
2023-01-08T01:11:09.510Z,100030.03
2023-01-08T01:13:36.131Z,100107.97
2023-01-08T01:16:03.357Z,100084.94
2023-01-08T01:18:30.020Z,100069.88
2023-01-08T01:20:56.665Z,100086.72
2023-01-08T01:23:23.147Z,100076.97
2023-01-08T01:25:49.784Z,100075.16
2023-01-08T01:28:17.303Z,100105.28
2023-01-08T01:30:43.928Z,100103.53
2023-01-08T01:33:10.416Z,100067.22
2023-01-08T01:35:37.973Z,100087.59
2023-01-08T01:38:04.549Z,100107.97
2023-01-08T01:40:31.093Z,100108.84
2023-01-08T01:42:58.628Z,100071.66
2023-01-08T01:45:30.340Z,99959.22
2023-01-08T01:48:02.332Z,99999.09
2023-01-08T01:50:33.092Z,100100.00
2023-01-08T01:53:05.291Z,100075.19
2023-01-08T01:55:33.054Z,100031.78
2023-01-08T01:58:12.225Z,100100.00
2023-01-08T02:00:39.042Z,100104.44
2023-01-08T02:03:06.875Z,100072.56
2023-01-08T02:06:00.475Z,100093.81
2023-01-08T02:08:37.002Z,100076.97
2023-01-08T02:11:22.297Z,100092.06
2023-01-08T02:13:58.135Z,100093.81
2023-01-08T02:16:44.463Z,100087.63
2023-01-08T02:19:37.402Z,100091.16
2023-01-08T02:22:30.959Z,100069.03
2023-01-08T02:25:15.660Z,100107.09
2023-01-08T02:27:47.759Z,100101.78
2023-01-08T02:30:14.642Z,100097.31
2023-01-08T02:32:42.766Z,100096.38
2023-01-08T02:35:11.095Z,100090.94
2023-01-08T02:37:39.023Z,99990.66
2023-01-08T02:40:30.885Z,100103.06
2023-01-08T02:43:06.444Z,100064.97
2023-01-08T02:45:52.631Z,100048.84
2023-01-08T02:49:09.632Z,100070.06
2023-01-08T02:51:44.687Z,100000.78
2023-01-08T02:54:16.256Z,100054.00
2023-01-08T02:56:48.034Z,100061.03
2023-01-08T02:59:15.526Z,100032.63
2023-01-08T03:01:43.432Z,100024.66
2023-01-08T03:04:16.050Z,99982.94
2023-01-08T03:06:43.772Z,100062.66
2023-01-08T03:09:11.171Z,100043.13
2023-01-08T03:11:50.082Z,99996.97
2023-01-08T03:14:25.411Z,100040.44
2023-01-08T03:17:01.086Z,100041.28
2023-01-08T03:19:42.724Z,100075.81
2023-01-08T03:22:13.318Z,100079.34
2023-01-08T03:24:42.762Z,100006.69
2023-01-08T03:27:12.822Z,100074.00
2023-01-08T03:29:40.488Z,100038.56
2023-01-08T03:32:13.887Z,100051.84
2023-01-08T03:34:43.464Z,100052.72
2023-01-08T03:37:12.719Z,100050.06
2023-01-08T03:39:52.128Z,99980.06
2023-01-08T03:42:20.314Z,100022.69
2023-01-08T03:44:47.155Z,100062.50
2023-01-08T03:47:15.307Z,100051.03
2023-01-08T03:49:43.712Z,99985.34
2023-01-08T03:52:21.296Z,100038.59
2023-01-08T03:54:47.804Z,100059.88
2023-01-08T03:57:14.375Z,100023.66
2023-01-08T03:59:40.845Z,100023.59
2023-01-08T04:02:07.495Z,100016.56
2023-01-08T04:04:34.343Z,100032.50
2023-01-08T04:07:00.967Z,99997.94
2023-01-08T04:09:27.537Z,100006.78
2023-01-08T04:11:54.068Z,100010.31
2023-01-08T04:14:20.563Z,100021.03
2023-01-08T04:16:47.175Z,99994.44
2023-01-08T04:19:14.274Z,100004.16
2023-01-08T04:21:40.841Z,99997.97
2023-01-08T04:24:08.680Z,100006.78
2023-01-08T04:26:35.219Z,100020.09
2023-01-08T04:29:05.115Z,100011.31
2023-01-08T04:31:31.893Z,100015.75
2023-01-08T04:33:58.485Z,99980.38
2023-01-08T04:36:25.032Z,100013.25
2023-01-08T04:38:51.630Z,99998.16
2023-01-08T04:41:18.541Z,99914.84
2023-01-08T04:43:46.211Z,99994.66
2023-01-08T04:46:12.852Z,99973.41
2023-01-08T04:48:39.504Z,99879.59
2023-01-08T04:51:06.253Z,99944.28
2023-01-08T04:53:35.770Z,99978.78
2023-01-08T04:56:08.000Z,100004.41
2023-01-08T04:58:35.557Z,99966.34
2023-01-08T05:01:10.129Z,99941.59
2023-01-08T05:03:36.686Z,99936.31
2023-01-08T05:06:03.298Z,99972.63
2023-01-08T05:08:29.852Z,99946.03
2023-01-08T05:10:59.481Z,99870.66
2023-01-08T05:13:26.113Z,99907.00
2023-01-08T05:15:52.646Z,99963.69
2023-01-08T05:18:19.131Z,99965.50
2023-01-08T05:20:45.554Z,99979.66
2023-01-08T05:23:12.115Z,99989.44
2023-01-08T05:25:38.681Z,99961.13
2023-01-08T05:28:05.199Z,99958.47
2023-01-08T05:30:31.705Z,99979.72
2023-01-08T05:32:58.306Z,99987.75
2023-01-08T05:35:24.835Z,99948.75
2023-01-08T05:37:51.358Z,99969.09
2023-01-08T05:40:17.973Z,99959.41
2023-01-08T05:42:44.511Z,99968.28
2023-01-08T05:45:11.144Z,99984.28
2023-01-08T05:47:37.775Z,99967.50
2023-01-08T05:50:04.682Z,99940.03
2023-01-08T05:52:31.282Z,99950.69
2023-01-08T05:55:00.041Z,99972.84
2023-01-08T05:57:26.580Z,99964.03
2023-01-08T05:59:53.099Z,99972.91
2023-01-08T06:02:19.702Z,99978.22
2023-01-08T06:04:46.348Z,99957.84
2023-01-08T06:07:12.803Z,99933.06
2023-01-08T06:09:39.409Z,99947.25
2023-01-08T06:12:06.250Z,99941.06
2023-01-08T06:14:32.979Z,99928.75
2023-01-08T06:16:59.567Z,99963.25
2023-01-08T06:19:26.154Z,99936.56
2023-01-08T06:21:52.645Z,99972.78
2023-01-08T06:24:19.221Z,99965.63
2023-01-08T06:26:45.770Z,99966.47
2023-01-08T06:29:12.251Z,99992.00
2023-01-08T06:31:38.838Z,99985.69
2023-01-08T06:34:05.508Z,99999.72
2023-01-08T06:36:33.115Z,99974.63
2023-01-08T06:38:59.679Z,100019.69
2023-01-08T06:41:26.268Z,99999.22
2023-01-08T06:43:52.810Z,99974.22
2023-01-08T06:46:19.329Z,99999.84
2023-01-08T06:48:45.841Z,100002.25
2023-01-08T06:51:12.392Z,100024.31
2023-01-08T06:53:38.909Z,100014.44
2023-01-08T06:56:07.446Z,100011.53
2023-01-08T06:58:33.987Z,100002.47
2023-01-08T07:01:00.606Z,100012.28
2023-01-08T07:03:27.279Z,100012.19
2023-01-08T07:05:53.966Z,100009.50
2023-01-08T07:08:20.477Z,100027.03
2023-01-08T07:10:47.045Z,100008.25
2023-01-08T07:13:15.203Z,100034.66
2023-01-08T07:15:43.295Z,99906.91
2023-01-08T07:18:11.897Z,100023.25
2023-01-08T07:20:39.710Z,100020.53
2023-01-08T07:23:09.814Z,100024.91
2023-01-08T07:25:36.445Z,100033.88
2023-01-08T07:28:03.061Z,100030.47
2023-01-08T07:30:30.708Z,100032.38
2023-01-08T07:32:59.558Z,100022.78
2023-01-08T07:35:26.281Z,99928.72
2023-01-08T07:37:52.901Z,99994.38
2023-01-08T07:40:19.492Z,99987.38
2023-01-08T07:42:46.051Z,99987.38
2023-01-08T07:45:12.568Z,100019.38
2023-01-08T07:47:39.157Z,100022.97
2023-01-08T07:50:06.278Z,100012.25
2023-01-08T07:52:32.877Z,99986.59
2023-01-08T07:54:59.416Z,99928.06
2023-01-08T07:57:25.900Z,99990.09
2023-01-08T07:59:52.461Z,99921.75
2023-01-08T08:02:20.154Z,100035.28
2023-01-08T08:04:46.812Z,99990.03
2023-01-08T08:07:13.304Z,100017.34
2023-01-08T08:09:40.184Z,100031.47
2023-01-08T08:12:07.021Z,99916.09
2023-01-08T08:14:33.542Z,100008.25
2023-01-08T08:17:00.794Z,99999.41
2023-01-08T08:19:27.270Z,100019.00
2023-01-08T08:21:53.869Z,99986.38
2023-01-08T08:24:20.392Z,99984.88
2023-01-08T08:26:46.951Z,99925.63
2023-01-08T08:29:13.603Z,99993.22
2023-01-08T08:31:40.358Z,99980.00
2023-01-08T08:34:07.965Z,99883.56
2023-01-08T08:36:34.645Z,99985.59
2023-01-08T08:39:02.412Z,99986.75
2023-01-08T08:41:29.037Z,99953.25
2023-01-08T08:43:55.490Z,99895.78
2023-01-08T08:46:22.216Z,99946.50
2023-01-08T08:48:48.818Z,99967.22
2023-01-08T08:51:15.452Z,99972.78
2023-01-08T08:53:41.961Z,99978.28
2023-01-08T08:56:08.771Z,99891.66
2023-01-08T08:58:35.351Z,99982.81
2023-01-08T09:01:03.735Z,99964.19
2023-01-08T09:03:30.920Z,99941.22
2023-01-08T09:05:59.744Z,99948.28
2023-01-08T09:08:26.705Z,99890.69
2023-01-08T09:10:53.203Z,99970.47
2023-01-08T09:13:19.764Z,99973.22
2023-01-08T09:15:46.269Z,99960.88
2023-01-08T09:18:14.631Z,99960.03
2023-01-08T09:20:42.292Z,99975.97
2023-01-08T09:23:09.710Z,99964.50
2023-01-08T09:25:36.277Z,99979.63
2023-01-08T09:28:05.880Z,99974.31
2023-01-08T09:30:33.665Z,99976.91
2023-01-08T09:33:02.636Z,99972.41
2023-01-08T09:35:29.830Z,99977.69
2023-01-08T09:37:56.490Z,99943.91
2023-01-08T09:40:31.479Z,99875.66
2023-01-08T09:43:01.649Z,99980.94
2023-01-08T09:45:31.083Z,99952.56
2023-01-08T09:48:05.684Z,99964.91
2023-01-08T09:50:33.886Z,99966.59
2023-01-08T09:53:00.627Z,99944.53
2023-01-08T09:55:31.362Z,99865.78
2023-01-08T09:58:01.670Z,99961.47
2023-01-08T10:00:31.852Z,99948.25
2023-01-08T10:02:58.476Z,99943.78
2023-01-08T10:05:29.597Z,99947.34
2023-01-08T10:07:56.128Z,99948.28
2023-01-08T10:10:27.801Z,99870.31
2023-01-08T10:12:55.377Z,99942.94
2023-01-08T10:15:23.020Z,99941.16
2023-01-08T10:18:13.021Z,99940.28
2023-01-08T10:20:39.978Z,99870.28
2023-01-08T10:23:15.655Z,99938.44
2023-01-08T10:25:51.202Z,99936.72
2023-01-08T10:28:26.740Z,99922.53
2023-01-08T10:30:58.586Z,99906.59
2023-01-08T10:33:40.605Z,99907.59
2023-01-08T10:36:10.666Z,99900.69
2023-01-08T10:38:42.764Z,99866.34
2023-01-08T10:41:13.424Z,99900.06
2023-01-08T10:43:58.409Z,99898.25
2023-01-08T10:46:28.768Z,99808.88
2023-01-08T10:48:58.488Z,99892.91
2023-01-08T10:51:28.203Z,99890.25
2023-01-08T10:53:58.768Z,99805.34
2023-01-08T10:56:28.240Z,99858.44
2023-01-08T10:58:55.618Z,99866.47
2023-01-08T11:01:31.453Z,99851.41
2023-01-08T11:04:03.331Z,99874.41
2023-01-08T11:06:36.815Z,99861.13
2023-01-08T11:09:19.510Z,99865.53
2023-01-08T11:11:46.061Z,99860.22
2023-01-08T11:14:19.326Z,99860.22
2023-01-08T11:16:46.960Z,99693.22
2023-01-08T11:19:19.702Z,99833.66
2023-01-08T11:21:58.595Z,99845.94
2023-01-08T11:24:45.887Z,99850.28
2023-01-08T11:27:12.307Z,99853.59
2023-01-08T11:30:17.444Z,99833.94
2023-01-08T11:33:05.371Z,99835.53
2023-01-08T11:35:39.206Z,99805.31
2023-01-08T11:38:08.136Z,99779.22
2023-01-08T11:40:46.228Z,99821.38
2023-01-08T11:43:31.033Z,99807.56
2023-01-08T11:46:38.959Z,99776.25
2023-01-08T11:49:31.046Z,99805.13
2023-01-08T11:52:27.673Z,99789.50
2023-01-08T11:55:11.927Z,99793.84
2023-01-08T11:57:57.675Z,99786.31
2023-01-08T12:01:01.103Z,99772.28
2023-01-08T12:03:36.548Z,99723.25
2023-01-08T12:06:28.157Z,99772.44
2023-01-08T12:09:10.361Z,99765.44
2023-01-08T12:11:47.087Z,99692.84
2023-01-08T12:14:28.506Z,99776.06
2023-01-08T12:17:12.222Z,99780.13
2023-01-08T12:19:56.856Z,99762.22
2023-01-08T12:22:38.541Z,99748.16
2023-01-08T12:25:44.969Z,99769.63
2023-01-08T12:28:23.278Z,99761.09
2023-01-08T12:31:25.534Z,99751.09
2023-01-08T12:33:56.422Z,99738.41
2023-01-08T12:36:33.199Z,99726.25
2023-01-08T12:39:18.432Z,99616.22
2023-01-08T12:41:46.858Z,99706.50
2023-01-08T12:44:23.738Z,99702.28
2023-01-08T12:46:52.557Z,99717.44
2023-01-08T12:49:33.271Z,99749.31
2023-01-08T12:52:20.430Z,99748.47
2023-01-08T12:54:54.931Z,99751.13
2023-01-08T12:57:31.740Z,99740.94
2023-01-08T13:00:19.954Z,99741.59
2023-01-08T13:03:05.042Z,99711.50
2023-01-08T13:05:35.052Z,99742.72
2023-01-08T13:08:26.315Z,99723.34
2023-01-08T13:10:55.060Z,99737.41
2023-01-08T13:13:47.721Z,99719.25
2023-01-08T13:16:14.379Z,99725.78
2023-01-08T13:18:42.566Z,99734.56
2023-01-08T13:21:11.756Z,99725.69
2023-01-08T13:23:38.746Z,99700.75
2023-01-08T13:26:06.687Z,99720.19
2023-01-08T13:28:44.973Z,99664.94
2023-01-08T13:31:20.868Z,99692.16
2023-01-08T13:33:54.542Z,99691.97
2023-01-08T13:36:23.911Z,99697.44
2023-01-08T13:39:19.394Z,99689.06
2023-01-08T13:41:59.099Z,99697.38
2023-01-08T13:44:34.172Z,99683.53
2023-01-08T13:47:04.419Z,99628.69
2023-01-08T13:49:41.126Z,99662.13
2023-01-08T13:52:27.815Z,99666.78
2023-01-08T13:54:54.947Z,99649.59
2023-01-08T13:57:23.408Z,99652.50
2023-01-08T13:59:55.280Z,99674.59
2023-01-08T14:02:29.955Z,99681.75
2023-01-08T14:04:58.234Z,99659.63
2023-01-08T14:07:25.946Z,99683.56
2023-01-08T14:09:53.260Z,99679.13
2023-01-08T14:12:22.950Z,99632.41
2023-01-08T14:14:53.591Z,99666.78
2023-01-08T14:17:27.013Z,99646.50
2023-01-08T14:19:53.554Z,99646.50
2023-01-08T14:22:26.233Z,99667.75
2023-01-08T14:24:58.378Z,99639.47
2023-01-08T14:27:27.925Z,99657.16
2023-01-08T14:29:55.238Z,99657.28
2023-01-08T14:32:25.384Z,99630.09
2023-01-08T14:34:53.785Z,99569.31
2023-01-08T14:37:20.729Z,99635.53
2023-01-08T14:39:54.993Z,99615.28
2023-01-08T14:42:44.377Z,99650.63
2023-01-08T14:45:14.036Z,99636.50
2023-01-08T14:47:49.177Z,99592.44
2023-01-08T14:50:19.675Z,99603.94
2023-01-08T14:52:46.868Z,99615.41
2023-01-08T14:55:19.327Z,99630.44
2023-01-08T14:57:48.559Z,99597.81
2023-01-08T15:00:19.431Z,99607.53
2023-01-08T15:02:47.691Z,99537.84
2023-01-08T15:05:22.976Z,99628.75
2023-01-08T15:07:59.920Z,99624.34
2023-01-08T15:10:34.134Z,99609.31
2023-01-08T15:13:03.617Z,99540.50
2023-01-08T15:15:32.156Z,99587.28
2023-01-08T15:17:59.164Z,99551.97
2023-01-08T15:20:31.148Z,99562.56
2023-01-08T15:22:58.432Z,99596.09
2023-01-08T15:25:28.361Z,99571.38
2023-01-08T15:27:59.891Z,99563.44
2023-01-08T15:30:33.990Z,99575.78
2023-01-08T15:33:21.739Z,99575.78
2023-01-08T15:35:49.326Z,99570.47
2023-01-08T15:38:16.731Z,99548.41
2023-01-08T15:40:44.702Z,99578.41
2023-01-08T15:43:13.789Z,99559.88
2023-01-08T15:45:46.129Z,99584.53
2023-01-08T15:48:13.457Z,99503.25
2023-01-08T15:50:43.590Z,99542.94
2023-01-08T15:53:16.639Z,99556.16
2023-01-08T15:55:44.403Z,99543.72
2023-01-08T15:58:12.510Z,99583.47
2023-01-08T16:00:40.618Z,99492.50
2023-01-08T16:03:07.588Z,99549.81
2023-01-08T16:05:34.962Z,99432.34
2023-01-08T16:08:01.473Z,99570.91
2023-01-08T16:10:29.076Z,99574.41
2023-01-08T16:12:55.942Z,99501.94
2023-01-08T16:15:22.827Z,99583.22
2023-01-08T16:17:49.529Z,99503.81
2023-01-08T16:20:16.941Z,99531.22
2023-01-08T16:22:43.877Z,99551.56
2023-01-08T16:25:10.881Z,99571.91
2023-01-08T16:27:38.348Z,99532.19
2023-01-08T16:30:07.930Z,99528.63
2023-01-08T16:32:34.653Z,99549.84
2023-01-08T16:35:01.266Z,99563.97
2023-01-08T16:37:30.600Z,99549.88
2023-01-08T16:39:57.162Z,99549.78
2023-01-08T16:42:24.013Z,99562.19
2023-01-08T16:44:50.616Z,99551.56
2023-01-08T16:47:17.152Z,99569.22
2023-01-08T16:49:43.706Z,99563.91
2023-01-08T16:52:10.446Z,99555.06
2023-01-08T16:54:37.551Z,99551.56
2023-01-08T16:57:04.217Z,99565.78
2023-01-08T16:59:32.852Z,99528.78
2023-01-08T17:02:00.145Z,99554.38
2023-01-08T17:04:29.355Z,99542.97
2023-01-08T17:06:56.360Z,99553.63
2023-01-08T17:09:23.481Z,99541.31
2023-01-08T17:11:50.224Z,99542.22
2023-01-08T17:14:17.001Z,99532.50
2023-01-08T17:16:45.307Z,99547.50
2023-01-08T17:19:13.490Z,99440.69
2023-01-08T17:21:40.330Z,99519.28
2023-01-08T17:24:07.537Z,99442.50
2023-01-08T17:26:34.156Z,99511.38
2023-01-08T17:29:00.862Z,99485.81
2023-01-08T17:31:27.430Z,99490.22
2023-01-08T17:33:54.528Z,99470.84
2023-01-08T17:36:24.045Z,99469.94
2023-01-08T17:38:53.353Z,99506.97
2023-01-08T17:41:40.083Z,99479.63
2023-01-08T17:44:11.464Z,99507.84
2023-01-08T17:46:44.982Z,99499.94
2023-01-08T17:49:13.432Z,99477.78
2023-01-08T17:58:34.928Z,99482.16
2023-01-08T18:01:01.509Z,99408.00
2023-01-08T18:03:28.136Z,99461.78
2023-01-08T18:05:54.583Z,99392.97
2023-01-08T18:08:21.045Z,99467.03
2023-01-08T18:10:47.583Z,99461.72
2023-01-08T18:13:14.255Z,99459.91
2023-01-08T18:15:40.780Z,99468.69
2023-01-08T18:18:07.261Z,99428.16
2023-01-08T18:20:33.825Z,99457.25
2023-01-08T18:23:00.322Z,99451.09
2023-01-08T18:25:26.819Z,99448.47
2023-01-08T18:27:54.096Z,99448.44
2023-01-08T18:30:20.896Z,99433.44
2023-01-08T18:32:47.372Z,99429.91
2023-01-08T18:35:15.151Z,99437.78
2023-01-08T18:37:41.714Z,99440.47
2023-01-08T18:40:08.897Z,99405.16
2023-01-08T18:42:35.424Z,99408.66
2023-01-08T18:45:03.265Z,99406.06
2023-01-08T18:47:30.170Z,99406.06
2023-01-08T18:49:58.991Z,99422.94
2023-01-08T18:52:25.610Z,99403.50
2023-01-08T18:54:53.581Z,99380.56
2023-01-08T18:57:20.369Z,99381.50
2023-01-08T18:59:49.395Z,99371.78
2023-01-08T19:02:22.202Z,99384.16
2023-01-08T19:04:49.720Z,99364.78
2023-01-08T19:07:17.202Z,99398.31
2023-01-08T19:09:43.824Z,99370.97
2023-01-08T19:12:10.556Z,99277.56
2023-01-08T19:14:37.415Z,99375.41
2023-01-08T19:17:04.613Z,99311.88
2023-01-08T19:19:31.516Z,99398.31
2023-01-08T19:21:58.152Z,99343.66
2023-01-08T19:24:24.797Z,99353.31
2023-01-08T19:26:51.876Z,99354.16
2023-01-08T19:29:18.927Z,99347.97
2023-01-08T19:31:45.918Z,99348.81
2023-01-08T19:34:12.868Z,99334.69
2023-01-08T19:36:39.555Z,99344.34
2023-01-08T19:39:07.484Z,99340.84
2023-01-08T19:41:52.651Z,99341.78
2023-01-08T19:44:19.240Z,99332.16
2023-01-08T19:46:45.818Z,99331.31
2023-01-08T19:49:12.716Z,99334.00
2023-01-08T19:51:39.502Z,99347.25
2023-01-08T19:54:06.158Z,99323.50
2023-01-08T19:56:32.745Z,99310.31
2023-01-08T19:58:59.342Z,99231.91
2023-01-08T20:01:28.220Z,99276.84
2023-01-08T20:03:56.304Z,99341.19
2023-01-08T20:06:24.821Z,99328.00
2023-01-08T20:08:54.227Z,99320.06
2023-01-08T20:11:22.413Z,99305.94
2023-01-08T20:13:50.292Z,99333.28
2023-01-08T20:16:18.456Z,99283.94
2023-01-08T20:18:45.462Z,99282.19
2023-01-08T20:21:23.010Z,99231.13
2023-01-08T20:24:01.770Z,99191.50
2023-01-08T20:26:30.289Z,99305.09
2023-01-08T20:28:58.284Z,99282.22
2023-01-08T20:31:29.457Z,99246.09
2023-01-08T20:33:57.353Z,99266.34
2023-01-08T20:36:27.633Z,99264.59
2023-01-08T20:38:56.572Z,99291.03
2023-01-08T20:41:24.184Z,99276.06
2023-01-08T20:43:50.817Z,99245.19
2023-01-08T20:46:17.434Z,99235.50
2023-01-08T20:48:47.655Z,99261.94
2023-01-08T20:51:15.805Z,99256.66
2023-01-08T20:53:42.582Z,99255.78
2023-01-08T20:56:14.689Z,99237.28
2023-01-08T20:58:44.128Z,99169.47
2023-01-08T21:01:14.263Z,99125.47
2023-01-08T21:03:41.595Z,99220.56
2023-01-08T21:06:15.655Z,99227.59
2023-01-08T21:08:43.409Z,99224.06
2023-01-08T21:11:12.816Z,99132.53
2023-01-08T21:13:40.122Z,99240.81
2023-01-08T21:16:11.124Z,99229.38
2023-01-08T21:18:40.517Z,99209.09
2023-01-08T21:21:07.997Z,99215.25
2023-01-08T21:23:34.709Z,99228.47
2023-01-08T21:26:06.985Z,99215.25
2023-01-08T21:28:34.298Z,99202.03
2023-01-08T21:31:13.016Z,99220.53
2023-01-08T21:33:39.827Z,99181.78
2023-01-08T21:36:12.593Z,99159.78
2023-01-08T21:38:39.508Z,99165.94
2023-01-08T21:41:08.460Z,99161.50
2023-01-08T21:43:54.232Z,99208.16
2023-01-08T21:46:25.580Z,99209.03
2023-01-08T21:48:52.336Z,99150.94
2023-01-08T21:51:37.393Z,99165.00
2023-01-08T21:54:04.534Z,99172.94
2023-01-08T21:56:31.256Z,99106.03
2023-01-08T21:58:57.802Z,99165.00
2023-01-08T22:01:24.518Z,99156.19
2023-01-08T22:03:51.226Z,99157.06
2023-01-08T22:06:17.848Z,99158.81
2023-01-08T22:08:45.209Z,99150.88
2023-01-08T22:11:11.889Z,99139.44
2023-01-08T22:13:39.311Z,99153.47
2023-01-08T22:16:09.133Z,99120.94
2023-01-08T22:18:36.796Z,99134.97
2023-01-08T22:21:06.514Z,99137.63
2023-01-08T22:23:34.005Z,99145.47
2023-01-08T22:26:22.052Z,99118.22
2023-01-08T22:28:48.563Z,99112.06
2023-01-08T22:31:16.371Z,99102.38
2023-01-08T22:33:43.540Z,99114.63
2023-01-08T22:36:12.607Z,99117.28
2023-01-08T22:39:08.465Z,99142.81
2023-01-08T22:41:36.545Z,99118.28
2023-01-08T22:44:03.468Z,99132.34
2023-01-08T22:47:21.074Z,99146.47
2023-01-08T22:49:48.415Z,99150.03
2023-01-08T22:52:15.035Z,99128.03
2023-01-08T22:54:41.631Z,99153.53
2023-01-08T22:57:08.554Z,99144.75
2023-01-08T22:59:35.174Z,99136.84
2023-01-08T23:02:01.668Z,99138.59
2023-01-08T23:04:28.148Z,99117.47
2023-01-08T23:06:54.603Z,99121.84
2023-01-08T23:09:21.126Z,99146.50
2023-01-08T23:11:47.590Z,99061.19
2023-01-08T23:14:15.868Z,99139.47
2023-01-08T23:16:43.106Z,99119.22
2023-01-08T23:19:09.654Z,99144.75
2023-01-08T23:21:38.481Z,99160.59
2023-01-08T23:24:07.126Z,99150.94
2023-01-08T23:26:33.677Z,99157.06
2023-01-08T23:29:00.624Z,99150.91
2023-01-08T23:31:29.158Z,99147.41
2023-01-08T23:33:56.537Z,99100.78
2023-01-08T23:36:23.209Z,99179.09
2023-01-08T23:38:52.835Z,99193.19
2023-01-08T23:41:23.024Z,99174.72
2023-01-08T23:43:50.181Z,99171.22
2023-01-08T23:46:17.719Z,99180.03
2023-01-08T23:48:44.723Z,99173.91
2023-01-08T23:51:11.265Z,99110.56
2023-01-08T23:53:38.125Z,99139.59
2023-01-08T23:56:05.029Z,99195.03
2023-01-08T23:58:31.575Z,99197.66
